< < Back
Terminal Aerodrome Forecast


Current Version              Previous Versions:   1  2  3  4  5  6  7  8  9  

Terminal Aerodrome Forecast

345
FTUS42 KGSP 212100 AAA
TAFHKY
TAF AMD
KHKY 212136Z 2122/2218 27005KT P6SM SCT060 BKN250
     FM220300 29003KT P6SM SCT060 BKN150
     FM221200 30004KT P6SM FEW060 BKN200=



Latest METAR

379
SAUS70 KWBC 221100 RRD
MTRHKY
METAR KHKY 221053Z 31005KT 10SM CLR 23/20 A3007 RMK AO2 SLP156
T02280200


USA.gov is the U.S. government's official web portal to all federal, state and local government web resources and services.